sensor_id;sensor_type;location;lat;lon;timestamp;pressure;altitude;pressure_sealevel;temperature;humidity
71559;BME280;59382;43.852;25.952;2023-04-20T00:00:05;100748.97;;;15.40;66.22
71559;BME280;59382;43.852;25.952;2023-04-20T00:02:36;100736.06;;;15.35;66.29
71559;BME280;59382;43.852;25.952;2023-04-20T00:05:06;100746.94;;;15.35;66.46
71559;BME280;59382;43.852;25.952;2023-04-20T00:07:32;100736.44;;;15.27;66.42
71559;BME280;59382;43.852;25.952;2023-04-20T00:09:58;100750.88;;;15.28;66.53
71559;BME280;59382;43.852;25.952;2023-04-20T00:12:23;100745.78;;;15.20;66.89
71559;BME280;59382;43.852;25.952;2023-04-20T00:14:49;100729.28;;;15.10;67.16
71559;BME280;59382;43.852;25.952;2023-04-20T00:17:16;100709.00;;;15.01;66.95
71559;BME280;59382;43.852;25.952;2023-04-20T00:19:41;100743.09;;;15.20;66.84
71559;BME280;59382;43.852;25.952;2023-04-20T00:22:07;100728.44;;;15.09;67.18
71559;BME280;59382;43.852;25.952;2023-04-20T00:24:32;100733.06;;;15.09;67.00
71559;BME280;59382;43.852;25.952;2023-04-20T00:26:58;100728.00;;;15.01;67.02
71559;BME280;59382;43.852;25.952;2023-04-20T00:29:24;100738.50;;;15.09;67.15
71559;BME280;59382;43.852;25.952;2023-04-20T00:31:53;100733.53;;;15.06;67.00
71559;BME280;59382;43.852;25.952;2023-04-20T00:34:19;100724.56;;;14.94;66.77
71559;BME280;59382;43.852;25.952;2023-04-20T00:36:45;100737.13;;;14.95;67.16
71559;BME280;59382;43.852;25.952;2023-04-20T00:39:11;100732.16;;;14.92;67.24
71559;BME280;59382;43.852;25.952;2023-04-20T00:41:36;100726.03;;;14.85;67.23
71559;BME280;59382;43.852;25.952;2023-04-20T00:44:02;100738.06;;;14.89;67.36
71559;BME280;59382;43.852;25.952;2023-04-20T00:46:28;100738.16;;;14.94;67.18
71559;BME280;59382;43.852;25.952;2023-04-20T00:48:53;100730.53;;;14.91;67.14
71559;BME280;59382;43.852;25.952;2023-04-20T00:51:22;100731.00;;;14.88;67.23
71559;BME280;59382;43.852;25.952;2023-04-20T00:53:48;100735.44;;;14.94;67.36
71559;BME280;59382;43.852;25.952;2023-04-20T00:56:13;100722.25;;;14.86;67.26
71559;BME280;59382;43.852;25.952;2023-04-20T00:58:41;100746.31;;;14.94;67.03
71559;BME280;59382;43.852;25.952;2023-04-20T01:01:08;100747.75;;;14.96;67.17
71559;BME280;59382;43.852;25.952;2023-04-20T01:03:35;100747.50;;;14.98;67.09
71559;BME280;59382;43.852;25.952;2023-04-20T01:06:01;100725.66;;;14.93;67.18
71559;BME280;59382;43.852;25.952;2023-04-20T01:08:27;100689.91;;;14.73;66.88
71559;BME280;59382;43.852;25.952;2023-04-20T01:10:55;100715.66;;;14.82;67.05
71559;BME280;59382;43.852;25.952;2023-04-20T01:13:21;100737.13;;;14.95;67.18
71559;BME280;59382;43.852;25.952;2023-04-20T01:15:48;100721.66;;;14.84;67.33
71559;BME280;59382;43.852;25.952;2023-04-20T01:18:15;100726.59;;;14.87;67.52
71559;BME280;59382;43.852;25.952;2023-04-20T01:20:42;100738.75;;;14.96;67.39
71559;BME280;59382;43.852;25.952;2023-04-20T01:23:08;100720.84;;;14.83;67.43
71559;BME280;59382;43.852;25.952;2023-04-20T01:25:33;100724.56;;;14.94;67.53
71559;BME280;59382;43.852;25.952;2023-04-20T01:27:59;100711.50;;;14.91;67.21
71559;BME280;59382;43.852;25.952;2023-04-20T01:30:26;100709.94;;;14.95;67.23
71559;BME280;59382;43.852;25.952;2023-04-20T01:32:52;100717.03;;;14.96;67.35
71559;BME280;59382;43.852;25.952;2023-04-20T01:35:17;100701.59;;;14.85;67.66
71559;BME280;59382;43.852;25.952;2023-04-20T01:37:43;100711.50;;;14.91;67.47
71559;BME280;59382;43.852;25.952;2023-04-20T01:40:09;100699.81;;;14.79;67.69
71559;BME280;59382;43.852;25.952;2023-04-20T01:42:35;100692.50;;;14.68;67.94
71559;BME280;59382;43.852;25.952;2023-04-20T01:45:01;100702.69;;;14.61;68.22
71559;BME280;59382;43.852;25.952;2023-04-20T01:47:29;100712.59;;;14.55;68.74
71559;BME280;59382;43.852;25.952;2023-04-20T01:49:55;100706.09;;;14.56;68.73
71559;BME280;59382;43.852;25.952;2023-04-20T01:52:20;100703.16;;;14.58;68.58
71559;BME280;59382;43.852;25.952;2023-04-20T01:54:46;100701.47;;;14.57;68.56
71559;BME280;59382;43.852;25.952;2023-04-20T01:57:11;100712.94;;;14.59;68.47
71559;BME280;59382;43.852;25.952;2023-04-20T01:59:36;100685.13;;;14.40;68.60
71559;BME280;59382;43.852;25.952;2023-04-20T02:02:02;100715.66;;;14.59;68.52
71559;BME280;59382;43.852;25.952;2023-04-20T02:04:27;100707.38;;;14.54;68.42
71559;BME280;59382;43.852;25.952;2023-04-20T02:06:53;100707.38;;;14.54;68.48
71559;BME280;59382;43.852;25.952;2023-04-20T02:09:18;100711.88;;;14.48;68.51
71559;BME280;59382;43.852;25.952;2023-04-20T02:11:44;100708.84;;;14.45;68.63
71559;BME280;59382;43.852;25.952;2023-04-20T02:14:10;100710.34;;;14.41;68.49
71559;BME280;59382;43.852;25.952;2023-04-20T02:16:35;100699.41;;;14.36;68.71
71559;BME280;59382;43.852;25.952;2023-04-20T02:19:01;100715.69;;;14.47;68.74
71559;BME280;59382;43.852;25.952;2023-04-20T02:21:27;100704.22;;;14.34;68.58
71559;BME280;59382;43.852;25.952;2023-04-20T02:23:53;100704.81;;;14.36;68.38
71559;BME280;59382;43.852;25.952;2023-04-20T02:26:18;100711.19;;;14.30;68.63
71559;BME280;59382;43.852;25.952;2023-04-20T02:28:44;100693.44;;;14.16;68.37
71559;BME280;59382;43.852;25.952;2023-04-20T02:31:10;100713.03;;;14.18;68.67
71559;BME280;59382;43.852;25.952;2023-04-20T02:33:36;100710.91;;;14.20;68.71
71559;BME280;59382;43.852;25.952;2023-04-20T02:36:02;100705.94;;;14.17;68.55
71559;BME280;59382;43.852;25.952;2023-04-20T02:38:27;100692.28;;;14.12;68.38
71559;BME280;59382;43.852;25.952;2023-04-20T02:40:53;100693.91;;;14.13;68.25
71559;BME280;59382;43.852;25.952;2023-04-20T02:43:18;100704.91;;;14.18;68.32
71559;BME280;59382;43.852;25.952;2023-04-20T02:45:44;100699.81;;;14.21;68.39
71559;BME280;59382;43.852;25.952;2023-04-20T02:48:10;100721.59;;;14.33;68.24
71559;BME280;59382;43.852;25.952;2023-04-20T02:50:36;100714.84;;;14.35;67.84
71559;BME280;59382;43.852;25.952;2023-04-20T02:53:04;100719.44;;;14.35;67.76
71559;BME280;59382;43.852;25.952;2023-04-20T02:55:30;100717.44;;;14.30;67.90
71559;BME280;59382;43.852;25.952;2023-04-20T02:57:55;100717.56;;;14.24;68.04
71559;BME280;59382;43.852;25.952;2023-04-20T03:00:21;100722.69;;;14.14;67.94
71559;BME280;59382;43.852;25.952;2023-04-20T03:02:46;100723.16;;;14.11;68.27
71559;BME280;59382;43.852;25.952;2023-04-20T03:05:12;100709.13;;;14.02;67.99
71559;BME280;59382;43.852;25.952;2023-04-20T03:07:37;100713.94;;;14.00;68.25
71559;BME280;59382;43.852;25.952;2023-04-20T03:10:03;100728.94;;;14.03;68.51
71559;BME280;59382;43.852;25.952;2023-04-20T03:12:28;100727.16;;;13.97;68.47
71559;BME280;59382;43.852;25.952;2023-04-20T03:14:56;100735.16;;;13.92;68.63
71559;BME280;59382;43.852;25.952;2023-04-20T03:17:21;100718.53;;;13.88;68.62
71559;BME280;59382;43.852;25.952;2023-04-20T03:19:47;100723.28;;;13.93;68.69
71559;BME280;59382;43.852;25.952;2023-04-20T03:22:12;100723.28;;;13.93;68.72
71559;BME280;59382;43.852;25.952;2023-04-20T03:24:38;100728.94;;;13.91;68.30
71559;BME280;59382;43.852;25.952;2023-04-20T03:27:03;100732.59;;;13.97;68.61
71559;BME280;59382;43.852;25.952;2023-04-20T03:29:32;100727.63;;;13.94;68.62
71559;BME280;59382;43.852;25.952;2023-04-20T03:31:57;100730.94;;;13.96;68.36
71559;BME280;59382;43.852;25.952;2023-04-20T03:34:23;100743.06;;;13.93;68.11
71559;BME280;59382;43.852;25.952;2023-04-20T03:36:49;100729.94;;;13.78;68.39
71559;BME280;59382;43.852;25.952;2023-04-20T03:39:14;100740.72;;;13.85;68.17
71559;BME280;59382;43.852;25.952;2023-04-20T03:41:40;100739.03;;;13.84;68.50
71559;BME280;59382;43.852;25.952;2023-04-20T03:44:06;100705.00;;;13.58;68.32
71559;BME280;59382;43.852;25.952;2023-04-20T03:46:31;100718.84;;;13.68;68.49
71559;BME280;59382;43.852;25.952;2023-04-20T03:48:58;100731.25;;;13.76;68.31
71559;BME280;59382;43.852;25.952;2023-04-20T03:51:23;100733.72;;;13.77;68.36
71559;BME280;59382;43.852;25.952;2023-04-20T03:53:49;100732.66;;;13.78;68.50
71559;BME280;59382;43.852;25.952;2023-04-20T03:56:15;100732.66;;;13.78;68.36
71559;BME280;59382;43.852;25.952;2023-04-20T03:58:41;100731.25;;;13.76;68.47
71559;BME280;59382;43.852;25.952;2023-04-20T04:01:06;100727.56;;;13.70;68.33
71559;BME280;59382;43.852;25.952;2023-04-20T04:03:33;100734.03;;;13.69;68.45
71559;BME280;59382;43.852;25.952;2023-04-20T04:05:59;100719.53;;;13.64;68.44
71559;BME280;59382;43.852;25.952;2023-04-20T04:08:24;100725.06;;;13.69;68.41
71559;BME280;59382;43.852;25.952;2023-04-20T04:10:50;100718.00;;;13.68;68.37
71559;BME280;59382;43.852;25.952;2023-04-20T04:13:16;100744.56;;;13.77;68.40
71559;BME280;59382;43.852;25.952;2023-04-20T04:15:41;100734.19;;;13.74;68.06
71559;BME280;59382;43.852;25.952;2023-04-20T04:18:07;100724.97;;;13.64;68.01
71559;BME280;59382;43.852;25.952;2023-04-20T04:20:33;100745.84;;;13.75;68.32
71559;BME280;59382;43.852;25.952;2023-04-20T04:22:58;100742.56;;;13.73;67.80
71559;BME280;59382;43.852;25.952;2023-04-20T04:25:24;100751.19;;;13.81;68.21
71559;BME280;59382;43.852;25.952;2023-04-20T04:27:49;100755.69;;;13.88;68.19
71559;BME280;59382;43.852;25.952;2023-04-20T04:30:15;100754.28;;;13.97;67.74
71559;BME280;59382;43.852;25.952;2023-04-20T04:32:44;100744.50;;;13.96;67.47
71559;BME280;59382;43.852;25.952;2023-04-20T04:35:12;100747.69;;;13.93;67.31
71559;BME280;59382;43.852;25.952;2023-04-20T04:37:37;100763.84;;;13.99;67.72
71559;BME280;59382;43.852;25.952;2023-04-20T04:40:04;100754.63;;;14.00;67.68
71559;BME280;59382;43.852;25.952;2023-04-20T04:42:32;100773.06;;;13.98;67.62
71559;BME280;59382;43.852;25.952;2023-04-20T04:44:59;100763.03;;;13.99;67.57
71559;BME280;59382;43.852;25.952;2023-04-20T04:47:27;100761.72;;;14.01;67.57
71559;BME280;59382;43.852;25.952;2023-04-20T04:49:54;100747.56;;;13.99;67.04
71559;BME280;59382;43.852;25.952;2023-04-20T04:52:20;100769.97;;;14.06;67.18
71559;BME280;59382;43.852;25.952;2023-04-20T04:54:46;100773.06;;;14.10;66.80
71559;BME280;59382;43.852;25.952;2023-04-20T04:57:11;100772.47;;;14.08;67.00
71559;BME280;59382;43.852;25.952;2023-04-20T04:59:37;100780.84;;;14.06;66.77
71559;BME280;59382;43.852;25.952;2023-04-20T05:02:02;100772.13;;;14.04;66.69
71559;BME280;59382;43.852;25.952;2023-04-20T05:04:28;100777.19;;;14.01;66.90
71559;BME280;59382;43.852;25.952;2023-04-20T05:06:54;100759.56;;;13.92;66.56
71559;BME280;59382;43.852;25.952;2023-04-20T05:09:19;100769.97;;;13.95;66.64
71559;BME280;59382;43.852;25.952;2023-04-20T05:11:45;100763.50;;;13.96;66.67
71559;BME280;59382;43.852;25.952;2023-04-20T05:14:10;100789.66;;;14.02;66.26
71559;BME280;59382;43.852;25.952;2023-04-20T05:16:36;100780.03;;;14.06;66.31
71559;BME280;59382;43.852;25.952;2023-04-20T05:19:01;100789.97;;;14.12;65.76
71559;BME280;59382;43.852;25.952;2023-04-20T05:21:40;100788.28;;;14.11;65.44
71559;BME280;59382;43.852;25.952;2023-04-20T05:24:05;100788.97;;;14.06;65.78
71559;BME280;59382;43.852;25.952;2023-04-20T05:26:34;100788.75;;;14.08;65.73
71559;BME280;59382;43.852;25.952;2023-04-20T05:29:00;100795.00;;;14.08;66.13
71559;BME280;59382;43.852;25.952;2023-04-20T05:31:26;100799.59;;;14.08;65.63
71559;BME280;59382;43.852;25.952;2023-04-20T05:33:52;100811.28;;;14.08;65.80
71559;BME280;59382;43.852;25.952;2023-04-20T05:36:17;100802.44;;;14.13;65.91
71559;BME280;59382;43.852;25.952;2023-04-20T05:38:43;100783.69;;;14.11;65.26
71559;BME280;59382;43.852;25.952;2023-04-20T05:41:08;100802.13;;;14.21;65.49
71559;BME280;59382;43.852;25.952;2023-04-20T05:43:34;100809.03;;;14.35;65.24
71559;BME280;59382;43.852;25.952;2023-04-20T05:46:00;100806.69;;;14.38;64.96
71559;BME280;59382;43.852;25.952;2023-04-20T05:48:25;100823.44;;;14.47;64.88
71559;BME280;59382;43.852;25.952;2023-04-20T05:50:53;100815.28;;;14.47;64.71
71559;BME280;59382;43.852;25.952;2023-04-20T05:53:19;100817.91;;;14.42;64.49
71559;BME280;59382;43.852;25.952;2023-04-20T05:55:46;100818.38;;;14.39;64.63
71559;BME280;59382;43.852;25.952;2023-04-20T05:58:15;100819.66;;;14.36;64.50
71559;BME280;59382;43.852;25.952;2023-04-20T06:00:41;100813.41;;;14.36;64.68
71559;BME280;59382;43.852;25.952;2023-04-20T06:03:06;100816.47;;;14.39;64.34
71559;BME280;59382;43.852;25.952;2023-04-20T06:05:32;100800.63;;;14.25;64.26
71559;BME280;59382;43.852;25.952;2023-04-20T06:07:58;100820.47;;;14.37;64.43
71559;BME280;59382;43.852;25.952;2023-04-20T06:10:23;100811.41;;;14.31;64.33
71559;BME280;59382;43.852;25.952;2023-04-20T06:12:49;100817.91;;;14.42;64.41
71559;BME280;59382;43.852;25.952;2023-04-20T06:15:15;100821.44;;;14.42;64.45
71559;BME280;59382;43.852;25.952;2023-04-20T06:17:40;100817.44;;;14.45;64.32
71559;BME280;59382;43.852;25.952;2023-04-20T06:20:09;100820.25;;;14.50;64.31
71559;BME280;59382;43.852;25.952;2023-04-20T06:22:40;100828.53;;;14.55;64.16
71559;BME280;59382;43.852;25.952;2023-04-20T06:25:06;100835.72;;;14.49;63.98
71559;BME280;59382;43.852;25.952;2023-04-20T06:27:32;100813.97;;;14.38;64.15
71559;BME280;59382;43.852;25.952;2023-04-20T06:29:59;100819.56;;;14.43;64.14
71559;BME280;59382;43.852;25.952;2023-04-20T06:32:25;100831.03;;;14.56;64.04
71559;BME280;59382;43.852;25.952;2023-04-20T06:34:50;100828.53;;;14.55;63.98
71559;BME280;59382;43.852;25.952;2023-04-20T06:37:18;100818.00;;;14.47;63.65
71559;BME280;59382;43.852;25.952;2023-04-20T06:39:43;100821.34;;;14.49;64.06
71559;BME280;59382;43.852;25.952;2023-04-20T06:42:09;100829.47;;;14.49;63.85
71559;BME280;59382;43.852;25.952;2023-04-20T06:44:34;100829.09;;;14.45;64.02
71559;BME280;59382;43.852;25.952;2023-04-20T06:47:01;100832.44;;;14.47;63.97
71559;BME280;59382;43.852;25.952;2023-04-20T06:49:28;100831.59;;;14.47;63.94
71559;BME280;59382;43.852;25.952;2023-04-20T06:51:54;100783.00;;;14.16;63.83
71559;BME280;59382;43.852;25.952;2023-04-20T06:54:19;100824.97;;;14.43;63.87
71559;BME280;59382;43.852;25.952;2023-04-20T06:56:45;100832.53;;;14.41;63.55
71559;BME280;59382;43.852;25.952;2023-04-20T06:59:11;100824.97;;;14.31;63.89
71559;BME280;59382;43.852;25.952;2023-04-20T07:01:36;100819.78;;;14.30;63.84
71559;BME280;59382;43.852;25.952;2023-04-20T07:04:02;100832.53;;;14.41;63.73
71559;BME280;59382;43.852;25.952;2023-04-20T07:06:27;100822.72;;;14.40;63.70
71559;BME280;59382;43.852;25.952;2023-04-20T07:08:53;100829.94;;;14.46;63.33
71559;BME280;59382;43.852;25.952;2023-04-20T07:11:18;100808.91;;;14.30;63.58
71559;BME280;59382;43.852;25.952;2023-04-20T07:13:44;100822.59;;;14.35;63.69
71559;BME280;59382;43.852;25.952;2023-04-20T07:16:10;100833.34;;;14.30;63.83
71559;BME280;59382;43.852;25.952;2023-04-20T07:18:35;100816.63;;;14.15;63.90
71559;BME280;59382;43.852;25.952;2023-04-20T07:21:01;100835.28;;;14.23;64.12
71559;BME280;59382;43.852;25.952;2023-04-20T07:23:27;100847.38;;;14.27;64.02
71559;BME280;59382;43.852;25.952;2023-04-20T07:25:54;100851.56;;;14.23;64.03
71559;BME280;59382;43.852;25.952;2023-04-20T07:28:19;100855.28;;;14.28;63.99
71559;BME280;59382;43.852;25.952;2023-04-20T07:30:45;100855.16;;;14.35;63.96
71559;BME280;59382;43.852;25.952;2023-04-20T07:33:10;100843.28;;;14.36;63.95
71559;BME280;59382;43.852;25.952;2023-04-20T07:35:36;100833.34;;;14.30;63.90
71559;BME280;59382;43.852;25.952;2023-04-20T07:38:02;100859.66;;;14.41;63.88
71559;BME280;59382;43.852;25.952;2023-04-20T07:40:27;100854.63;;;14.44;64.15
71559;BME280;59382;43.852;25.952;2023-04-20T07:42:53;100852.59;;;14.40;63.97
71559;BME280;59382;43.852;25.952;2023-04-20T07:45:20;100847.16;;;14.40;63.84
71559;BME280;59382;43.852;25.952;2023-04-20T07:47:53;100850.03;;;14.45;64.02
71559;BME280;59382;43.852;25.952;2023-04-20T07:50:19;100844.81;;;14.43;63.71
71559;BME280;59382;43.852;25.952;2023-04-20T07:52:45;100850.59;;;14.47;64.10
71559;BME280;59382;43.852;25.952;2023-04-20T07:55:13;100819.78;;;14.30;64.20
71559;BME280;59382;43.852;25.952;2023-04-20T07:57:39;100849.88;;;14.40;64.21
71559;BME280;59382;43.852;25.952;2023-04-20T08:00:07;100844.31;;;14.35;64.46
71559;BME280;59382;43.852;25.952;2023-04-20T08:02:34;100851.66;;;14.46;64.33
71559;BME280;59382;43.852;25.952;2023-04-20T08:05:03;100844.09;;;14.48;64.16
71559;BME280;59382;43.852;25.952;2023-04-20T08:07:29;100834.06;;;14.37;64.44
71559;BME280;59382;43.852;25.952;2023-04-20T08:09:55;100842.44;;;14.47;64.60
71559;BME280;59382;43.852;25.952;2023-04-20T08:12:28;100852.38;;;14.53;64.27
71559;BME280;59382;43.852;25.952;2023-04-20T08:14:53;100830.03;;;14.39;64.32
71559;BME280;59382;43.852;25.952;2023-04-20T08:17:25;100837.72;;;14.42;64.58
71559;BME280;59382;43.852;25.952;2023-04-20T08:19:51;100844.09;;;14.48;64.56
71559;BME280;59382;43.852;25.952;2023-04-20T08:22:18;100803.09;;;14.26;64.62
71559;BME280;59382;43.852;25.952;2023-04-20T08:24:46;100840.91;;;14.51;64.28
71559;BME280;59382;43.852;25.952;2023-04-20T08:27:12;100837.16;;;14.63;64.22
71559;BME280;59382;43.852;25.952;2023-04-20T08:29:39;100847.31;;;14.79;63.93
71559;BME280;59382;43.852;25.952;2023-04-20T08:32:08;100844.63;;;14.91;63.76
71559;BME280;59382;43.852;25.952;2023-04-20T08:34:38;100827.03;;;14.82;63.78
71559;BME280;59382;43.852;25.952;2023-04-20T08:37:04;100852.41;;;14.99;63.91
71559;BME280;59382;43.852;25.952;2023-04-20T08:39:30;100849.56;;;14.94;63.59
71559;BME280;59382;43.852;25.952;2023-04-20T08:41:56;100851.25;;;14.95;63.48
71559;BME280;59382;43.852;25.952;2023-04-20T08:44:23;100835.66;;;14.79;63.63
71559;BME280;59382;43.852;25.952;2023-04-20T08:46:49;100869.19;;;14.96;63.43
71559;BME280;59382;43.852;25.952;2023-04-20T08:49:16;100859.72;;;14.87;63.57
71559;BME280;59382;43.852;25.952;2023-04-20T08:51:44;100855.00;;;14.94;63.49
71559;BME280;59382;43.852;25.952;2023-04-20T08:54:10;100861.25;;;15.06;63.39
71559;BME280;59382;43.852;25.952;2023-04-20T08:56:41;100864.31;;;15.21;63.19
71559;BME280;59382;43.852;25.952;2023-04-20T08:59:07;100848.50;;;15.41;62.64
71559;BME280;59382;43.852;25.952;2023-04-20T09:01:39;100856.34;;;15.77;62.20
71559;BME280;59382;43.852;25.952;2023-04-20T09:04:20;100850.44;;;15.97;61.45
71559;BME280;59382;43.852;25.952;2023-04-20T09:06:50;100837.38;;;16.10;61.26
71559;BME280;59382;43.852;25.952;2023-04-20T09:09:22;100853.41;;;16.51;60.47
71559;BME280;59382;43.852;25.952;2023-04-20T09:12:02;100853.97;;;16.86;59.65
71559;BME280;59382;43.852;25.952;2023-04-20T09:14:29;100861.59;;;17.22;58.91
71559;BME280;59382;43.852;25.952;2023-04-20T09:16:58;100845.44;;;17.54;58.16
71559;BME280;59382;43.852;25.952;2023-04-20T09:19:30;100847.22;;;17.92;57.26
71559;BME280;59382;43.852;25.952;2023-04-20T09:21:57;100842.59;;;18.14;56.82
71559;BME280;59382;43.852;25.952;2023-04-20T09:24:30;100849.84;;;18.30;56.41
71559;BME280;59382;43.852;25.952;2023-04-20T09:26:57;100851.84;;;18.39;56.43
71559;BME280;59382;43.852;25.952;2023-04-20T09:29:24;100844.94;;;18.32;56.49
71559;BME280;59382;43.852;25.952;2023-04-20T09:31:55;100830.22;;;18.06;56.49
71559;BME280;59382;43.852;25.952;2023-04-20T09:34:22;100850.09;;;18.02;56.67
71559;BME280;59382;43.852;25.952;2023-04-20T09:36:50;100843.38;;;17.88;56.68
71559;BME280;59382;43.852;25.952;2023-04-20T09:39:17;100861.75;;;17.71;57.18
71559;BME280;59382;43.852;25.952;2023-04-20T09:41:44;100863.06;;;17.46;57.48
71559;BME280;59382;43.852;25.952;2023-04-20T09:44:11;100852.97;;;17.30;57.80
71559;BME280;59382;43.852;25.952;2023-04-20T09:46:39;100823.28;;;17.12;57.57
71559;BME280;59382;43.852;25.952;2023-04-20T09:49:08;100842.56;;;17.27;57.75
71559;BME280;59382;43.852;25.952;2023-04-20T09:51:35;100851.97;;;17.36;57.50
71559;BME280;59382;43.852;25.952;2023-04-20T09:54:04;100858.84;;;17.39;58.03
71559;BME280;59382;43.852;25.952;2023-04-20T09:56:31;100830.59;;;17.28;57.69
71559;BME280;59382;43.852;25.952;2023-04-20T09:59:01;100851.91;;;17.48;57.59
71559;BME280;59382;43.852;25.952;2023-04-20T10:01:30;100861.56;;;17.55;57.26
71559;BME280;59382;43.852;25.952;2023-04-20T10:03:57;100846.66;;;17.63;57.13
71559;BME280;59382;43.852;25.952;2023-04-20T10:06:32;100847.56;;;17.74;56.81
71559;BME280;59382;43.852;25.952;2023-04-20T10:09:00;100831.00;;;17.80;56.57
71559;BME280;59382;43.852;25.952;2023-04-20T10:11:34;100840.81;;;18.03;56.28
71559;BME280;59382;43.852;25.952;2023-04-20T10:14:16;100834.41;;;18.19;56.08
71559;BME280;59382;43.852;25.952;2023-04-20T10:16:56;100816.44;;;18.23;55.77
71559;BME280;59382;43.852;25.952;2023-04-20T10:19:22;100827.63;;;18.48;55.37
71559;BME280;59382;43.852;25.952;2023-04-20T10:21:49;100823.09;;;18.63;55.14
71559;BME280;59382;43.852;25.952;2023-04-20T10:24:27;100827.84;;;18.78;54.76
71559;BME280;59382;43.852;25.952;2023-04-20T10:26:53;100826.81;;;18.84;54.68
71559;BME280;59382;43.852;25.952;2023-04-20T10:29:26;100830.34;;;18.79;54.38
71559;BME280;59382;43.852;25.952;2023-04-20T10:31:56;100828.38;;;18.75;54.65
71559;BME280;59382;43.852;25.952;2023-04-20T10:34:35;100804.56;;;18.65;54.45
71559;BME280;59382;43.852;25.952;2023-04-20T10:37:07;100807.03;;;18.72;54.11
71559;BME280;59382;43.852;25.952;2023-04-20T10:39:34;100818.03;;;18.77;54.55
71559;BME280;59382;43.852;25.952;2023-04-20T10:42:02;100818.03;;;18.77;54.32
71559;BME280;59382;43.852;25.952;2023-04-20T10:44:29;100811.56;;;18.88;54.14
71559;BME280;59382;43.852;25.952;2023-04-20T10:47:00;100816.78;;;18.94;53.93
71559;BME280;59382;43.852;25.952;2023-04-20T10:49:29;100805.84;;;18.94;53.91
71559;BME280;59382;43.852;25.952;2023-04-20T10:51:56;100816.03;;;19.04;53.79
71559;BME280;59382;43.852;25.952;2023-04-20T10:54:22;100807.56;;;19.05;53.65
71559;BME280;59382;43.852;25.952;2023-04-20T10:56:49;100810.84;;;19.07;53.39
71559;BME280;59382;43.852;25.952;2023-04-20T10:59:23;100811.59;;;18.98;53.01
71559;BME280;59382;43.852;25.952;2023-04-20T11:01:50;100811.03;;;18.91;53.45
71559;BME280;59382;43.852;25.952;2023-04-20T11:04:16;100786.84;;;18.73;53.71
71559;BME280;59382;43.852;25.952;2023-04-20T11:06:43;100801.28;;;18.68;53.58
71559;BME280;59382;43.852;25.952;2023-04-20T11:11:43;100797.19;;;18.66;53.95
71559;BME280;59382;43.852;25.952;2023-04-20T11:14:10;100801.34;;;18.78;53.57
71559;BME280;59382;43.852;25.952;2023-04-20T11:16:37;100772.59;;;18.66;53.67
71559;BME280;59382;43.852;25.952;2023-04-20T11:19:04;100798.41;;;18.90;53.60
71559;BME280;59382;43.852;25.952;2023-04-20T11:21:38;100800.66;;;18.98;53.47
71559;BME280;59382;43.852;25.952;2023-04-20T11:24:05;100788.09;;;19.02;53.35
71559;BME280;59382;43.852;25.952;2023-04-20T11:26:41;100781.84;;;19.06;52.96
71559;BME280;59382;43.852;25.952;2023-04-20T11:29:07;100787.66;;;19.20;53.13
71559;BME280;59382;43.852;25.952;2023-04-20T11:31:33;100776.72;;;19.20;52.54
71559;BME280;59382;43.852;25.952;2023-04-20T11:33:59;100772.34;;;19.24;52.51
71559;BME280;59382;43.852;25.952;2023-04-20T11:36:26;100777.09;;;19.33;52.19
71559;BME280;59382;43.852;25.952;2023-04-20T11:38:53;100764.25;;;19.39;51.94
71559;BME280;59382;43.852;25.952;2023-04-20T11:41:20;100767.00;;;19.44;51.55
71559;BME280;59382;43.852;25.952;2023-04-20T11:43:46;100773.03;;;19.41;51.49
71559;BME280;59382;43.852;25.952;2023-04-20T11:46:17;100766.97;;;19.34;51.32
71559;BME280;59382;43.852;25.952;2023-04-20T11:48:47;100767.94;;;19.18;51.17
71559;BME280;59382;43.852;25.952;2023-04-20T11:51:13;100765.47;;;19.16;51.37
71559;BME280;59382;43.852;25.952;2023-04-20T11:53:39;100765.50;;;19.21;51.11
71559;BME280;59382;43.852;25.952;2023-04-20T11:56:06;100768.03;;;19.28;51.09
71559;BME280;59382;43.852;25.952;2023-04-20T11:58:33;100764.78;;;19.36;50.55
71559;BME280;59382;43.852;25.952;2023-04-20T12:00:59;100757.16;;;19.48;50.86
71559;BME280;59382;43.852;25.952;2023-04-20T12:03:25;100759.94;;;19.63;50.53
71559;BME280;59382;43.852;25.952;2023-04-20T12:05:51;100746.28;;;19.68;51.33
71559;BME280;59382;43.852;25.952;2023-04-20T12:08:17;100747.41;;;19.82;51.55
71559;BME280;59382;43.852;25.952;2023-04-20T12:10:43;100756.19;;;19.94;52.11
71559;BME280;59382;43.852;25.952;2023-04-20T12:13:09;100760.56;;;20.00;52.45
71559;BME280;59382;43.852;25.952;2023-04-20T12:15:35;100761.13;;;20.07;52.55
71559;BME280;59382;43.852;25.952;2023-04-20T12:18:00;100746.91;;;20.05;52.75
71559;BME280;59382;43.852;25.952;2023-04-20T12:20:26;100731.56;;;19.99;52.69
71559;BME280;59382;43.852;25.952;2023-04-20T12:22:51;100733.75;;;20.02;52.97
71559;BME280;59382;43.852;25.952;2023-04-20T12:25:17;100738.41;;;19.97;52.09
71559;BME280;59382;43.852;25.952;2023-04-20T12:27:42;100752.38;;;19.95;52.42
71559;BME280;59382;43.852;25.952;2023-04-20T12:30:08;100746.84;;;19.85;52.44
71559;BME280;59382;43.852;25.952;2023-04-20T12:32:34;100743.53;;;19.73;52.29
71559;BME280;59382;43.852;25.952;2023-04-20T12:35:00;100734.72;;;19.51;52.08
71559;BME280;59382;43.852;25.952;2023-04-20T12:37:25;100731.94;;;19.36;52.17
71559;BME280;59382;43.852;25.952;2023-04-20T12:39:51;100757.66;;;19.35;51.65